Time;durP1;ratioP1;P1;durP2;ratioP2;P2;SDS_P1;SDS_P2;PMS_P1;PMS_P2;Temp;Humidity;BMP_temperature;BMP_pressure;BME280_temperature;BME280_humidity;BME280_pressure;Samples;Min_cycle;Max_cycle;Signal;HPM_P1;HPM_P2
2023/12/08 00:00:45;;;;;;;25.98;15.07;;;1.80;99.90;;;;;;5094456;28;20482;-74
2023/12/08 00:03:12;;;;;;;25.17;15.20;;;1.80;99.90;;;;;;5111713;27;20120;-74
2023/12/08 00:05:38;;;;;;;23.25;15.30;;;1.80;99.90;;;;;;5107972;27;20081;-74
2023/12/08 00:08:03;;;;;;;24.55;15.25;;;1.80;99.90;;;;;;5097360;28;20499;-74
2023/12/08 00:10:29;;;;;;;24.48;14.98;;;1.70;99.90;;;;;;5099344;28;20071;-74
2023/12/08 00:12:55;;;;;;;24.95;15.55;;;1.70;99.90;;;;;;5123262;27;20039;-74
2023/12/08 00:15:21;;;;;;;25.75;15.80;;;1.70;99.90;;;;;;5101636;28;20034;-74
2023/12/08 00:17:46;;;;;;;25.00;15.52;;;1.70;99.90;;;;;;5085723;28;20054;-74
2023/12/08 00:20:12;;;;;;;25.13;15.07;;;1.70;99.90;;;;;;5137659;27;20043;-74
2023/12/08 00:22:38;;;;;;;24.92;15.80;;;1.70;99.90;;;;;;5102102;27;20094;-74
2023/12/08 00:25:04;;;;;;;25.58;15.40;;;1.70;99.90;;;;;;5068507;28;20121;-74
2023/12/08 00:27:30;;;;;;;23.40;15.23;;;1.80;99.90;;;;;;5107740;27;20126;-74
2023/12/08 00:29:55;;;;;;;25.23;15.90;;;1.80;99.90;;;;;;5082057;28;20069;-74
2023/12/08 00:32:21;;;;;;;23.77;15.65;;;1.70;99.90;;;;;;5098120;27;20055;-74
2023/12/08 00:34:47;;;;;;;24.38;15.88;;;1.70;99.90;;;;;;5110971;28;20087;-75
2023/12/08 00:37:13;;;;;;;20.80;14.18;;;1.70;99.90;;;;;;5111342;28;20035;-75
2023/12/08 00:39:39;;;;;;;24.88;15.00;;;1.70;99.90;;;;;;5110784;28;20044;-75
2023/12/08 00:42:05;;;;;;;24.10;14.85;;;1.70;99.90;;;;;;5123812;27;20091;-75
2023/12/08 00:44:30;;;;;;;26.13;15.07;;;1.80;99.90;;;;;;5096602;28;20047;-75
2023/12/08 00:46:56;;;;;;;22.83;15.07;;;1.70;99.90;;;;;;5104694;28;20070;-75
2023/12/08 00:49:22;;;;;;;20.70;14.52;;;1.70;99.90;;;;;;5105881;28;20047;-75
2023/12/08 00:51:47;;;;;;;23.63;15.68;;;1.70;99.90;;;;;;5120279;27;20470;-75
2023/12/08 00:54:14;;;;;;;23.42;15.40;;;1.70;99.90;;;;;;5118017;27;20052;-75
2023/12/08 00:56:39;;;;;;;;;;;1.70;99.90;;;;;;5094327;28;20509;-75
2023/12/08 00:59:05;;;;;;;25.48;15.10;;;1.70;99.90;;;;;;5110747;27;19916;-75
2023/12/08 01:01:31;;;;;;;22.63;14.70;;;1.70;99.90;;;;;;5110773;28;20048;-76
2023/12/08 01:03:56;;;;;;;24.77;15.05;;;1.70;99.90;;;;;;5117885;27;20570;-75
2023/12/08 01:06:22;;;;;;;24.37;15.83;;;1.70;99.90;;;;;;5130751;27;20092;-75
2023/12/08 01:08:48;;;;;;;24.58;15.63;;;1.70;99.90;;;;;;5098258;28;20305;-75
2023/12/08 01:11:14;;;;;;;24.10;15.93;;;1.60;99.90;;;;;;5112597;27;20069;-75
2023/12/08 01:13:40;;;;;;;24.42;15.40;;;1.60;99.90;;;;;;5085138;28;20040;-75
2023/12/08 01:16:06;;;;;;;25.55;15.80;;;1.70;99.90;;;;;;5089944;28;20048;-75
2023/12/08 01:18:33;;;;;;;25.38;15.48;;;1.60;99.90;;;;;;5096254;28;20036;-75
2023/12/08 01:20:59;;;;;;;25.15;16.40;;;1.60;99.90;;;;;;5105383;28;20052;-75
2023/12/08 01:23:24;;;;;;;23.23;15.30;;;1.60;99.90;;;;;;5118363;28;20764;-75
2023/12/08 01:25:51;;;;;;;22.23;15.02;;;1.60;99.90;;;;;;5112088;28;20043;-75
2023/12/08 01:28:17;;;;;;;23.25;15.82;;;1.60;99.90;;;;;;5093239;28;20081;-75
2023/12/08 01:30:43;;;;;;;25.58;16.25;;;1.60;99.90;;;;;;5128146;28;20070;-75
2023/12/08 01:33:09;;;;;;;25.65;16.33;;;1.60;99.90;;;;;;5103298;28;20087;-75
2023/12/08 01:35:34;;;;;;;20.58;14.63;;;1.60;99.90;;;;;;5125713;28;20098;-75
2023/12/08 01:38:00;;;;;;;23.60;14.68;;;1.60;99.90;;;;;;5109253;28;20039;-75
2023/12/08 01:40:26;;;;;;;24.58;15.65;;;1.60;99.90;;;;;;5122874;28;20122;-75
2023/12/08 01:42:51;;;;;;;17.20;11.45;;;1.60;99.90;;;;;;5096513;28;20475;-75
2023/12/08 01:45:17;;;;;;;24.73;16.10;;;1.60;99.90;;;;;;5119378;28;20035;-74
2023/12/08 01:47:43;;;;;;;23.80;15.32;;;1.60;99.90;;;;;;5108098;28;20039;-75
2023/12/08 01:50:11;;;;;;;24.13;15.73;;;1.60;99.90;;;;;;5109770;28;20049;-75
2023/12/08 01:52:37;;;;;;;22.77;15.35;;;1.60;99.90;;;;;;5093306;28;20074;-75
2023/12/08 01:55:03;;;;;;;24.63;15.80;;;1.60;99.90;;;;;;5109691;28;20032;-75
2023/12/08 01:57:29;;;;;;;25.23;17.15;;;1.60;99.90;;;;;;5110015;28;20031;-74
2023/12/08 01:59:56;;;;;;;22.25;15.40;;;1.60;99.90;;;;;;5097871;28;20035;-74
2023/12/08 02:02:22;;;;;;;28.20;16.25;;;1.60;99.90;;;;;;5113291;28;20035;-75
2023/12/08 02:04:49;;;;;;;24.08;15.45;;;1.60;99.90;;;;;;5125261;28;20050;-74
2023/12/08 02:07:15;;;;;;;23.25;15.45;;;1.60;99.90;;;;;;5110290;28;20046;-74
2023/12/08 02:09:41;;;;;;;23.52;15.55;;;1.60;99.90;;;;;;5110776;28;20406;-74
2023/12/08 02:12:09;;;;;;;23.88;14.57;;;1.60;99.90;;;;;;5102000;28;20059;-75
2023/12/08 02:14:35;;;;;;;24.77;15.95;;;1.60;99.90;;;;;;5106812;28;20123;-75
2023/12/08 02:17:16;;;;;;;23.77;15.23;;;1.60;99.90;;;;;;5130738;27;20042;-75
2023/12/08 02:19:43;;;;;;;24.02;15.32;;;1.60;99.90;;;;;;5116607;27;20694;-75
2023/12/08 02:22:09;;;;;;;23.08;15.27;;;1.60;99.90;;;;;;5120534;27;20047;-75
2023/12/08 02:24:34;;;;;;;23.60;16.13;;;1.60;99.90;;;;;;5127597;27;20378;-74
2023/12/08 02:27:00;;;;;;;25.08;15.50;;;1.60;99.90;;;;;;5128308;27;20375;-75
2023/12/08 02:29:26;;;;;;;23.23;15.77;;;1.60;99.90;;;;;;5133991;27;20672;-75
2023/12/08 02:32:01;;;;;;;23.67;15.95;;;1.60;99.90;;;;;;5116469;27;20066;-74
2023/12/08 02:34:28;;;;;;;24.88;16.27;;;1.60;99.90;;;;;;5110075;27;20057;-75
2023/12/08 02:36:55;;;;;;;24.77;15.90;;;1.60;99.90;;;;;;5121799;27;20052;-75
2023/12/08 02:39:22;;;;;;;25.00;15.65;;;1.60;99.90;;;;;;5113471;27;20031;-75
2023/12/08 02:41:48;;;;;;;23.35;15.35;;;1.60;99.90;;;;;;5114580;27;20043;-74
2023/12/08 02:44:14;;;;;;;22.90;15.63;;;1.60;99.90;;;;;;5117896;27;20501;-74
2023/12/08 02:46:40;;;;;;;19.85;12.57;;;1.60;99.90;;;;;;5088580;28;20051;-75
2023/12/08 02:49:06;;;;;;;25.13;15.63;;;1.60;99.90;;;;;;5103232;28;20051;-75
2023/12/08 02:51:31;;;;;;;24.67;16.60;;;1.60;99.90;;;;;;5084164;27;20043;-75
2023/12/08 02:53:57;;;;;;;26.92;16.00;;;1.60;99.90;;;;;;5107369;28;20043;-75
2023/12/08 02:56:23;;;;;;;25.10;16.08;;;1.60;99.90;;;;;;5116220;27;20084;-75
2023/12/08 02:58:48;;;;;;;24.63;16.00;;;1.60;99.90;;;;;;5132418;27;20043;-74
2023/12/08 03:01:14;;;;;;;22.52;15.68;;;1.60;99.90;;;;;;5107774;27;20302;-74
2023/12/08 03:03:40;;;;;;;24.90;16.40;;;1.60;99.90;;;;;;5105779;28;20048;-75
2023/12/08 03:06:06;;;;;;;27.35;16.95;;;1.60;99.90;;;;;;5104276;27;20031;-74
2023/12/08 03:08:32;;;;;;;19.92;12.63;;;1.60;99.90;;;;;;5107377;28;20035;-75
2023/12/08 03:10:58;;;;;;;24.75;16.20;;;1.60;99.90;;;;;;5098709;28;20505;-74
2023/12/08 03:13:24;;;;;;;24.83;16.42;;;1.60;99.90;;;;;;5103758;28;20055;-75
2023/12/08 03:15:49;;;;;;;24.27;14.80;;;1.60;99.90;;;;;;5126401;27;20045;-74
2023/12/08 03:18:15;;;;;;;23.25;15.77;;;1.60;99.90;;;;;;5115166;27;20076;-74
2023/12/08 03:20:40;;;;;;;25.57;15.77;;;1.60;99.90;;;;;;5101606;28;20498;-75
2023/12/08 03:23:06;;;;;;;26.98;17.20;;;1.60;99.90;;;;;;5091509;28;21092;-74
2023/12/08 03:25:32;;;;;;;23.92;15.40;;;1.60;99.90;;;;;;5084100;28;20164;-74
2023/12/08 03:27:57;;;;;;;25.70;15.57;;;1.60;99.90;;;;;;5118454;27;20047;-74
2023/12/08 03:30:23;;;;;;;27.00;15.55;;;1.60;99.90;;;;;;5132374;27;20296;-74
2023/12/08 03:32:49;;;;;;;22.50;15.50;;;1.60;99.90;;;;;;5095502;28;20105;-75
2023/12/08 03:35:14;;;;;;;23.15;16.08;;;1.60;99.90;;;;;;5094970;28;20483;-74
2023/12/08 03:37:41;;;;;;;20.83;14.70;;;1.50;99.90;;;;;;5110605;27;20071;-75
2023/12/08 03:40:07;;;;;;;23.27;15.77;;;1.50;99.90;;;;;;5115181;27;20100;-74
2023/12/08 03:42:36;;;;;;;22.80;15.43;;;1.60;99.90;;;;;;5097277;28;20035;-74
2023/12/08 03:45:03;;;;;;;25.42;16.17;;;1.50;99.90;;;;;;5091077;28;20048;-75
2023/12/08 03:47:28;;;;;;;23.98;15.77;;;1.60;99.90;;;;;;5091309;28;20075;-75
2023/12/08 03:49:54;;;;;;;20.67;13.90;;;1.60;99.90;;;;;;5109080;28;20081;-74
2023/12/08 03:52:20;;;;;;;24.80;15.60;;;1.60;99.90;;;;;;5125899;27;20342;-74
2023/12/08 03:54:45;;;;;;;21.38;14.25;;;1.50;99.90;;;;;;5098553;28;20051;-74
2023/12/08 03:57:11;;;;;;;22.88;14.65;;;1.50;99.90;;;;;;5094510;28;20475;-75
2023/12/08 03:59:37;;;;;;;24.23;15.20;;;1.50;99.90;;;;;;5123390;27;20043;-74
2023/12/08 04:02:03;;;;;;;23.42;15.73;;;1.60;99.90;;;;;;5111229;27;20027;-74
2023/12/08 04:04:28;;;;;;;22.02;14.25;;;1.60;99.90;;;;;;5121236;27;20474;-74
2023/12/08 04:06:55;;;;;;;22.23;15.57;;;1.60;99.90;;;;;;5111059;27;20131;-75
2023/12/08 04:09:21;;;;;;;21.30;13.73;;;1.50;99.90;;;;;;5101724;27;20119;-74
2023/12/08 04:11:46;;;;;;;23.95;14.90;;;1.50;99.90;;;;;;5104629;28;20463;-74
2023/12/08 04:14:12;;;;;;;22.58;14.45;;;1.60;99.90;;;;;;5114203;27;20063;-74
2023/12/08 04:16:38;;;;;;;22.25;14.90;;;1.50;99.90;;;;;;5114591;27;20092;-74
2023/12/08 04:19:04;;;;;;;23.58;15.45;;;1.50;99.90;;;;;;5113955;27;20064;-74
2023/12/08 04:21:29;;;;;;;22.95;15.30;;;1.50;99.90;;;;;;5110684;28;20084;-74
2023/12/08 04:23:55;;;;;;;23.55;14.82;;;1.50;99.90;;;;;;5110860;28;20047;-74
2023/12/08 04:26:24;;;;;;;21.45;14.95;;;1.50;99.90;;;;;;5106286;28;20046;-74
2023/12/08 04:28:52;;;;;;;21.83;14.68;;;1.40;99.90;;;;;;5110593;28;20047;-75
2023/12/08 04:31:18;;;;;;;21.70;14.98;;;1.40;99.90;;;;;;5095245;27;20123;-75
2023/12/08 04:33:44;;;;;;;21.95;15.93;;;1.40;99.90;;;;;;5093998;28;20188;-75
2023/12/08 04:36:10;;;;;;;21.42;14.90;;;1.40;99.90;;;;;;5115577;27;20143;-76
2023/12/08 04:38:35;;;;;;;21.77;14.73;;;1.30;99.90;;;;;;5093737;28;20047;-76
2023/12/08 04:41:01;;;;;;;19.25;13.40;;;1.30;99.90;;;;;;5105732;27;20070;-76
2023/12/08 04:43:27;;;;;;;23.00;14.75;;;1.30;99.90;;;;;;5074425;28;20181;-78
2023/12/08 04:45:52;;;;;;;23.00;14.63;;;1.20;99.90;;;;;;5089543;27;20050;-79
2023/12/08 04:48:18;;;;;;;22.38;14.75;;;1.20;99.90;;;;;;5105238;28;20051;-80
2023/12/08 04:50:45;;;;;;;23.60;14.60;;;1.20;99.90;;;;;;5077264;28;20054;-80
2023/12/08 04:53:11;;;;;;;21.27;13.32;;;1.20;99.90;;;;;;5112981;27;20127;-81
2023/12/08 04:55:37;;;;;;;21.25;14.00;;;1.10;99.90;;;;;;5096973;28;20145;-80
2023/12/08 04:58:03;;;;;;;22.38;14.38;;;1.20;99.90;;;;;;5090435;28;20032;-80
2023/12/08 05:00:29;;;;;;;22.92;14.38;;;1.10;99.90;;;;;;5076192;27;20039;-80
2023/12/08 05:02:57;;;;;;;23.17;14.45;;;1.10;99.90;;;;;;5124507;27;20539;-79
2023/12/08 05:05:24;;;;;;;24.42;15.02;;;1.10;99.90;;;;;;5112676;28;20450;-79
2023/12/08 05:07:50;;;;;;;24.77;15.50;;;1.10;99.90;;;;;;5093975;28;20046;-79
2023/12/08 05:10:16;;;;;;;21.65;14.32;;;1.10;99.90;;;;;;5094006;28;20118;-78
2023/12/08 05:12:42;;;;;;;22.00;14.40;;;1.00;99.90;;;;;;5128833;27;20137;-78
2023/12/08 05:15:08;;;;;;;22.83;14.68;;;1.00;99.90;;;;;;5113747;28;20042;-77
2023/12/08 05:17:34;;;;;;;21.88;14.32;;;1.00;99.90;;;;;;5113392;28;20111;-77
2023/12/08 05:20:03;;;;;;;23.92;15.30;;;1.10;99.90;;;;;;5119269;28;20039;-78
2023/12/08 05:22:29;;;;;;;23.02;15.15;;;1.00;99.90;;;;;;5107885;28;20501;-77
2023/12/08 05:24:55;;;;;;;21.67;14.43;;;1.10;99.90;;;;;;5130555;28;20039;-77
2023/12/08 05:27:20;;;;;;;23.52;14.65;;;1.00;99.90;;;;;;5098293;28;20048;-78
2023/12/08 05:29:46;;;;;;;23.42;15.10;;;1.00;99.90;;;;;;5108786;28;20090;-77
2023/12/08 05:32:12;;;;;;;23.30;15.13;;;1.00;99.90;;;;;;5102035;28;20465;-77
2023/12/08 05:34:38;;;;;;;26.88;16.27;;;1.00;99.90;;;;;;5110034;28;20410;-77
2023/12/08 05:37:04;;;;;;;23.23;14.80;;;1.00;99.90;;;;;;5110062;28;20038;-77
2023/12/08 05:39:30;;;;;;;22.33;15.57;;;1.00;99.90;;;;;;5116754;28;20401;-77
2023/12/08 05:41:56;;;;;;;23.92;15.30;;;1.00;99.90;;;;;;5108433;28;20041;-77
2023/12/08 05:44:21;;;;;;;23.98;14.75;;;1.00;99.90;;;;;;5072963;28;20071;-77
2023/12/08 05:46:47;;;;;;;24.58;15.35;;;1.00;99.90;;;;;;5077476;28;20141;-77
2023/12/08 05:49:13;;;;;;;21.98;15.23;;;1.00;99.90;;;;;;5107011;28;20036;-77
2023/12/08 05:51:38;;;;;;;22.00;14.68;;;1.00;99.90;;;;;;5114120;28;20059;-76
2023/12/08 05:54:04;;;;;;;23.35;15.23;;;1.00;99.90;;;;;;5114022;28;20415;-77
2023/12/08 05:56:30;;;;;;;24.45;15.23;;;1.00;99.90;;;;;;5113800;28;20391;-77
2023/12/08 05:58:55;;;;;;;22.15;14.80;;;1.00;99.90;;;;;;5112265;27;20039;-77
2023/12/08 06:01:22;;;;;;;23.42;14.95;;;1.00;99.90;;;;;;5104639;28;20047;-77
2023/12/08 06:03:47;;;;;;;23.42;14.18;;;1.00;99.90;;;;;;5098205;27;20684;-79
2023/12/08 06:06:13;;;;;;;22.23;15.00;;;1.00;99.90;;;;;;5076445;28;20123;-76
2023/12/08 06:08:39;;;;;;;22.50;15.07;;;1.00;99.90;;;;;;5090723;28;20126;-79
2023/12/08 06:11:05;;;;;;;21.42;14.05;;;1.00;99.90;;;;;;5115198;27;20054;-79
2023/12/08 06:13:31;;;;;;;23.52;14.88;;;0.90;99.90;;;;;;5103283;27;20478;-80
2023/12/08 06:15:57;;;;;;;22.85;15.48;;;0.90;99.90;;;;;;5090748;28;20181;-78
2023/12/08 06:18:23;;;;;;;21.30;13.98;;;0.90;99.90;;;;;;5107361;27;20446;-78
2023/12/08 06:20:49;;;;;;;23.92;14.85;;;1.00;99.90;;;;;;5115476;27;20043;-79
2023/12/08 06:23:14;;;;;;;24.75;16.52;;;0.90;99.90;;;;;;5102470;27;20115;-78
2023/12/08 06:25:40;;;;;;;23.33;15.00;;;0.90;99.90;;;;;;5100497;28;20047;-78
2023/12/08 06:28:06;;;;;;;22.95;14.77;;;1.00;99.90;;;;;;5101998;27;20032;-78
2023/12/08 06:30:31;;;;;;;21.60;14.55;;;0.90;99.90;;;;;;5081870;28;20040;-78
2023/12/08 06:32:57;;;;;;;21.80;14.25;;;0.90;99.90;;;;;;5131145;27;20048;-79
2023/12/08 06:35:23;;;;;;;22.50;14.35;;;0.90;99.90;;;;;;5089591;28;20494;-78
2023/12/08 06:37:50;;;;;;;22.30;14.50;;;0.90;99.90;;;;;;5133484;27;20127;-78
2023/12/08 06:40:16;;;;;;;22.65;14.35;;;0.90;99.90;;;;;;5088358;28;20032;-77
2023/12/08 06:42:42;;;;;;;22.10;14.45;;;0.90;99.90;;;;;;5104922;27;20688;-79
2023/12/08 06:45:09;;;;;;;19.85;13.57;;;0.90;99.90;;;;;;5119045;27;20040;-78
2023/12/08 06:47:34;;;;;;;23.02;14.90;;;0.90;99.90;;;;;;5107085;28;20047;-78
2023/12/08 06:50:00;;;;;;;22.50;14.65;;;0.90;99.90;;;;;;5094814;28;20722;-78
2023/12/08 06:52:26;;;;;;;23.17;15.70;;;0.80;99.90;;;;;;5112500;27;20047;-77
2023/12/08 06:54:52;;;;;;;23.83;14.93;;;0.80;99.90;;;;;;5098453;28;20120;-76
2023/12/08 06:57:17;;;;;;;23.13;14.80;;;0.90;99.90;;;;;;5100514;28;20031;-77
2023/12/08 06:59:43;;;;;;;22.38;14.45;;;0.90;99.90;;;;;;5110841;27;20043;-77
2023/12/08 07:02:09;;;;;;;22.80;14.43;;;0.90;99.90;;;;;;5120899;27;20048;-76
2023/12/08 07:04:34;;;;;;;22.30;14.82;;;0.90;99.90;;;;;;5111747;27;20042;-77
2023/12/08 07:07:00;;;;;;;24.00;15.52;;;0.90;99.90;;;;;;5112276;28;20035;-76
2023/12/08 07:09:26;;;;;;;22.40;14.68;;;0.90;99.90;;;;;;5116658;27;20047;-76
2023/12/08 07:11:51;;;;;;;25.15;15.02;;;0.90;99.90;;;;;;5095260;28;20052;-76
2023/12/08 07:14:17;;;;;;;23.27;15.02;;;0.90;99.90;;;;;;5096829;27;20071;-76
2023/12/08 07:16:43;;;;;;;25.40;16.25;;;0.90;99.90;;;;;;5117920;27;20467;-77
2023/12/08 07:19:09;;;;;;;25.25;16.55;;;0.90;99.90;;;;;;5115447;27;20035;-77
2023/12/08 07:21:41;;;;;;;25.30;16.17;;;0.90;99.90;;;;;;5093711;27;20044;-76
2023/12/08 07:24:07;;;;;;;22.90;15.05;;;0.90;99.90;;;;;;5114297;27;20684;-76
2023/12/08 07:26:32;;;;;;;21.38;14.23;;;0.90;99.90;;;;;;5122054;27;20051;-76
2023/12/08 07:28:58;;;;;;;21.67;13.80;;;0.90;99.90;;;;;;5112005;28;20470;-77
2023/12/08 07:31:24;;;;;;;23.17;14.82;;;0.90;99.90;;;;;;5110245;27;20051;-77
2023/12/08 07:33:50;;;;;;;22.98;15.30;;;1.00;99.90;;;;;;5129700;27;20070;-76
2023/12/08 07:36:15;;;;;;;24.27;15.60;;;0.90;99.90;;;;;;5108551;27;20036;-75
2023/12/08 07:38:41;;;;;;;21.80;12.77;;;0.90;99.90;;;;;;5099820;27;20062;-75
2023/12/08 07:41:07;;;;;;;24.73;16.05;;;0.90;99.90;;;;;;5090053;27;20046;-74
2023/12/08 07:43:32;;;;;;;26.55;17.08;;;1.00;99.90;;;;;;5093048;27;20056;-76
2023/12/08 07:45:59;;;;;;;26.50;15.93;;;1.00;99.90;;;;;;5111169;27;20078;-74
2023/12/08 07:48:25;;;;;;;24.55;14.77;;;0.90;99.90;;;;;;5100848;27;20498;-76
2023/12/08 07:50:50;;;;;;;24.25;15.20;;;0.90;99.90;;;;;;5108296;27;20045;-76
2023/12/08 07:53:16;;;;;;;23.88;15.18;;;1.00;99.90;;;;;;5121202;27;20409;-76
2023/12/08 07:55:42;;;;;;;27.08;16.17;;;0.90;99.90;;;;;;5105163;28;20498;-75
2023/12/08 07:58:07;;;;;;;24.98;16.20;;;1.00;99.90;;;;;;5097648;28;20035;-76
2023/12/08 08:00:33;;;;;;;23.92;14.70;;;1.00;99.90;;;;;;5105593;28;20035;-75
2023/12/08 08:02:59;;;;;;;24.45;14.65;;;1.00;99.90;;;;;;5098418;28;20044;-76
2023/12/08 08:05:25;;;;;;;25.02;16.02;;;1.00;99.90;;;;;;5085495;28;20506;-76
2023/12/08 08:07:51;;;;;;;23.73;15.45;;;1.00;99.90;;;;;;5118135;27;20483;-76
2023/12/08 08:10:16;;;;;;;25.05;15.70;;;1.00;99.90;;;;;;5121892;27;20084;-76
2023/12/08 08:12:42;;;;;;;22.60;15.27;;;1.10;99.90;;;;;;5106927;27;20155;-77
2023/12/08 08:15:08;;;;;;;24.95;15.93;;;1.10;99.90;;;;;;5094135;28;20047;-75
2023/12/08 08:17:34;;;;;;;25.88;16.48;;;1.00;99.90;;;;;;5096049;27;20035;-75
2023/12/08 08:20:00;;;;;;;26.27;16.63;;;1.10;99.90;;;;;;5119813;27;20035;-75
2023/12/08 08:22:25;;;;;;;26.50;17.00;;;1.10;99.90;;;;;;5118689;27;20385;-75
2023/12/08 08:24:51;;;;;;;28.63;16.52;;;1.10;99.90;;;;;;5088905;28;20802;-75
2023/12/08 08:27:17;;;;;;;27.67;16.40;;;1.10;99.90;;;;;;5116150;27;20050;-84
2023/12/08 08:29:42;;;;;;;26.17;16.20;;;1.20;99.90;;;;;;5128742;27;20049;-75
2023/12/08 08:32:08;;;;;;;27.45;16.65;;;1.10;99.90;;;;;;5113711;27;20094;-76
2023/12/08 08:34:35;;;;;;;24.20;16.10;;;1.20;99.90;;;;;;5117969;27;20058;-76
2023/12/08 08:37:01;;;;;;;27.65;17.33;;;1.10;99.90;;;;;;5111319;27;20115;-76
2023/12/08 08:39:27;;;;;;;22.40;15.00;;;1.20;99.90;;;;;;5093193;28;20031;-77
2023/12/08 08:41:53;;;;;;;27.73;17.70;;;1.20;99.90;;;;;;5114247;27;20084;-77
2023/12/08 08:44:19;;;;;;;24.45;15.88;;;1.20;99.90;;;;;;5110589;28;20047;-76
2023/12/08 08:46:45;;;;;;;26.30;17.02;;;1.10;99.90;;;;;;5111373;28;20035;-77
2023/12/08 08:49:11;;;;;;;23.92;15.35;;;1.20;99.90;;;;;;5093929;28;20487;-76
2023/12/08 08:51:38;;;;;;;24.67;16.00;;;1.20;99.90;;;;;;5108339;28;20051;-76
2023/12/08 08:54:03;;;;;;;27.02;16.77;;;1.20;99.90;;;;;;5101124;28;20063;-76
2023/12/08 08:56:29;;;;;;;24.67;16.02;;;1.20;99.90;;;;;;5091741;28;20465;-76
2023/12/08 08:58:55;;;;;;;24.20;16.23;;;1.20;99.90;;;;;;5087625;28;20046;-76
2023/12/08 09:01:20;;;;;;;26.10;16.23;;;1.30;99.90;;;;;;5107599;27;20027;-76
2023/12/08 09:03:46;;;;;;;25.30;16.15;;;1.20;99.90;;;;;;5116899;27;20486;-75
2023/12/08 09:06:12;;;;;;;20.77;12.30;;;1.20;99.90;;;;;;5109735;27;20114;-77
2023/12/08 09:08:37;;;;;;;23.42;15.20;;;1.20;99.90;;;;;;5114321;27;20043;-77
2023/12/08 09:11:03;;;;;;;25.17;16.50;;;1.30;99.90;;;;;;5112734;28;20526;-77
2023/12/08 09:13:31;;;;;;;28.23;16.55;;;1.30;99.90;;;;;;5088359;28;20051;-77
2023/12/08 09:15:56;;;;;;;26.35;17.25;;;1.20;99.90;;;;;;5084472;28;20406;-77
2023/12/08 09:18:22;;;;;;;25.20;16.45;;;1.30;99.90;;;;;;5110087;28;20039;-75
2023/12/08 09:20:48;;;;;;;27.02;16.52;;;1.30;99.90;;;;;;5108095;28;20043;-75
2023/12/08 09:23:13;;;;;;;24.27;15.82;;;1.30;99.90;;;;;;5073342;28;20368;-75
2023/12/08 09:25:39;;;;;;;25.60;16.00;;;1.30;99.90;;;;;;5104258;28;20066;-75
2023/12/08 09:28:05;;;;;;;25.42;16.15;;;1.30;99.90;;;;;;5101541;27;20359;-75
2023/12/08 09:30:31;;;;;;;25.42;16.13;;;1.30;99.90;;;;;;5101826;28;20031;-75
2023/12/08 09:32:57;;;;;;;23.25;15.50;;;1.30;99.90;;;;;;5107708;28;20052;-75
2023/12/08 09:35:23;;;;;;;25.42;16.17;;;1.30;99.90;;;;;;5132493;27;20057;-75
2023/12/08 09:37:49;;;;;;;23.23;15.15;;;1.40;99.90;;;;;;5128014;27;20483;-75
2023/12/08 09:40:15;;;;;;;23.77;15.85;;;1.30;99.90;;;;;;5112577;27;20038;-75
2023/12/08 09:42:57;;;;;;;25.48;15.88;;;1.50;99.90;;;;;;5105396;28;20086;-75
2023/12/08 09:45:24;;;;;;;26.08;16.38;;;1.40;99.90;;;;;;5122186;27;20734;-75
2023/12/08 09:47:53;;;;;;;27.02;16.55;;;1.40;99.90;;;;;;5099061;27;20066;-76
2023/12/08 09:50:19;;;;;;;26.27;16.95;;;1.50;99.90;;;;;;5115073;27;20606;-76
2023/12/08 09:52:45;;;;;;;25.40;16.40;;;1.50;99.90;;;;;;5115961;27;20074;-76
2023/12/08 09:55:12;;;;;;;23.73;15.82;;;1.50;99.90;;;;;;5099554;28;20036;-75
2023/12/08 09:57:39;;;;;;;26.88;17.67;;;1.50;99.90;;;;;;5078070;27;20448;-78
2023/12/08 10:00:15;;;;;;;26.95;15.88;;;1.50;99.90;;;;;;5110514;27;20040;-75
2023/12/08 10:02:41;;;;;;;24.23;15.82;;;1.40;99.90;;;;;;5112280;27;20071;-76
2023/12/08 10:05:08;;;;;;;22.80;14.77;;;1.50;99.90;;;;;;5093284;28;20442;-76
2023/12/08 10:07:35;;;;;;;27.10;16.88;;;1.50;99.90;;;;;;5071668;28;20115;-76
2023/12/08 10:10:02;;;;;;;24.60;16.13;;;1.50;99.90;;;;;;5101045;28;20457;-76
2023/12/08 10:12:28;;;;;;;22.63;15.52;;;1.60;99.90;;;;;;5116880;27;20047;-76
2023/12/08 10:14:58;;;;;;;25.00;15.27;;;1.60;99.90;;;;;;5094754;28;20104;-76
2023/12/08 10:17:24;;;;;;;24.25;15.20;;;1.60;99.90;;;;;;5096218;28;20404;-76
2023/12/08 10:19:52;;;;;;;22.38;14.90;;;1.50;99.90;;;;;;5108778;28;20509;-76
2023/12/08 10:22:18;;;;;;;25.55;16.52;;;1.50;99.90;;;;;;5103791;28;20360;-76
2023/12/08 10:24:45;;;;;;;26.77;16.85;;;1.60;99.90;;;;;;5112859;28;20051;-77
2023/12/08 10:27:10;;;;;;;;;;;1.60;99.90;;;;;;5111678;28;20125;-76
2023/12/08 10:29:37;;;;;;;25.20;16.42;;;1.60;99.90;;;;;;5100629;28;20078;-76
2023/12/08 10:32:04;;;;;;;;;;;1.60;99.90;;;;;;5112324;27;20226;-76
2023/12/08 10:34:31;;;;;;;23.70;15.30;;;1.70;99.90;;;;;;5138239;27;20017;-76
2023/12/08 10:36:56;;;;;;;;;;;1.60;99.90;;;;;;5107414;28;20032;-76
2023/12/08 10:39:24;;;;;;;21.52;14.13;;;1.70;99.90;;;;;;5095563;28;19915;-76
2023/12/08 10:41:51;;;;;;;21.95;14.30;;;1.70;99.90;;;;;;5091105;28;20113;-75
2023/12/08 10:44:23;;;;;;;27.42;16.58;;;1.60;99.90;;;;;;5135050;27;20081;-75
2023/12/08 10:46:49;;;;;;;25.00;15.63;;;1.60;99.90;;;;;;5113578;27;20054;-75
2023/12/08 10:49:19;;;;;;;27.27;16.80;;;1.70;99.90;;;;;;5136678;27;20051;-75
2023/12/08 10:51:49;;;;;;;24.02;15.73;;;1.70;99.90;;;;;;5106829;27;20046;-77
2023/12/08 10:54:16;;;;;;;24.00;15.40;;;1.70;99.90;;;;;;5106824;27;20039;-78
2023/12/08 10:56:46;;;;;;;25.42;15.27;;;1.70;99.90;;;;;;5111192;27;20051;-77
2023/12/08 10:59:25;;;;;;;23.15;15.30;;;1.70;99.90;;;;;;5092733;28;20068;-76
2023/12/08 11:01:52;;;;;;;22.15;14.50;;;1.80;99.90;;;;;;5074981;27;20167;-75
2023/12/08 11:04:25;;;;;;;22.30;14.30;;;1.80;99.90;;;;;;5112606;27;20067;-75
2023/12/08 11:06:54;;;;;;;22.42;15.10;;;1.70;99.90;;;;;;5104061;27;20110;-75
2023/12/08 11:09:22;;;;;;;24.75;15.38;;;1.80;99.90;;;;;;5108700;27;20051;-75
2023/12/08 11:11:54;;;;;;;24.73;15.85;;;1.70;99.90;;;;;;5113313;27;20036;-75
2023/12/08 11:14:51;;;;;;;22.05;15.40;;;1.70;99.90;;;;;;5112906;27;20082;-76
2023/12/08 11:17:35;;;;;;;26.60;16.93;;;1.70;99.90;;;;;;5087717;28;20048;-75
2023/12/08 11:20:01;;;;;;;28.00;16.98;;;1.80;99.90;;;;;;5102659;27;20035;-74
2023/12/08 11:22:28;;;;;;;24.10;16.10;;;1.80;99.90;;;;;;5101887;28;20078;-75
2023/12/08 11:24:56;;;;;;;26.45;15.98;;;1.80;99.90;;;;;;5077971;28;20047;-76
2023/12/08 11:27:40;;;;;;;26.88;17.33;;;1.70;99.90;;;;;;5123157;27;20483;-77
2023/12/08 11:30:10;;;;;;;29.52;16.83;;;1.80;99.90;;;;;;5097037;28;20044;-76
2023/12/08 11:32:56;;;;;;;23.98;15.38;;;1.70;99.90;;;;;;5102073;28;20083;-75
2023/12/08 11:35:21;;;;;;;23.98;15.43;;;1.80;99.90;;;;;;5107091;28;20418;-75
2023/12/08 11:37:47;;;;;;;24.55;14.73;;;1.80;99.90;;;;;;5102553;28;20043;-75
2023/12/08 11:40:13;;;;;;;25.55;16.30;;;1.80;99.90;;;;;;5109485;28;20043;-75
2023/12/08 11:42:45;;;;;;;28.85;17.85;;;1.80;99.90;;;;;;5103982;28;20047;-76
2023/12/08 11:45:11;;;;;;;33.03;19.00;;;1.80;99.90;;;;;;5117446;27;20617;-75
2023/12/08 11:47:37;;;;;;;29.13;17.75;;;1.90;99.90;;;;;;5084145;28;20600;-75
2023/12/08 11:50:05;;;;;;;21.15;13.57;;;1.80;99.90;;;;;;5120172;27;20040;-76
2023/12/08 11:52:33;;;;;;;30.33;16.73;;;1.80;99.90;;;;;;5099267;27;20044;-77
2023/12/08 11:55:15;;;;;;;28.20;16.58;;;1.80;99.90;;;;;;5090615;28;20105;-76
2023/12/08 11:57:51;;;;;;;29.30;17.42;;;1.90;99.90;;;;;;5105346;28;20039;-77
2023/12/08 12:00:22;;;;;;;31.47;17.70;;;1.90;99.90;;;;;;5111194;28;20035;-77
2023/12/08 12:02:49;;;;;;;31.85;17.83;;;1.90;99.90;;;;;;5109424;28;20490;-77
2023/12/08 12:05:16;;;;;;;28.02;16.02;;;1.90;99.90;;;;;;5110150;28;20036;-76
2023/12/08 12:07:49;;;;;;;26.33;16.20;;;2.00;99.90;;;;;;5093382;28;20044;-76
2023/12/08 12:10:18;;;;;;;31.10;17.60;;;1.90;99.90;;;;;;5077334;28;20039;-76
2023/12/08 12:13:05;;;;;;;29.88;17.27;;;2.00;99.90;;;;;;5111136;28;20059;-76
2023/12/08 12:15:33;;;;;;;29.60;17.23;;;1.90;99.90;;;;;;5110923;28;20083;-76
2023/12/08 12:18:01;;;;;;;25.98;16.13;;;1.90;99.90;;;;;;5077326;28;20285;-76
2023/12/08 12:20:34;;;;;;;32.00;17.20;;;2.00;99.90;;;;;;5110975;28;20047;-76
2023/12/08 12:23:00;;;;;;;29.38;17.15;;;2.10;99.90;;;;;;5111216;28;20043;-76
2023/12/08 12:25:25;;;;;;;30.90;17.20;;;2.00;99.90;;;;;;5077150;28;20502;-76
2023/12/08 12:27:53;;;;;;;29.85;18.15;;;2.00;99.90;;;;;;5094568;28;20043;-76
2023/12/08 12:30:20;;;;;;;29.58;16.80;;;2.10;99.90;;;;;;5110714;28;20107;-75
2023/12/08 12:32:48;;;;;;;30.80;16.95;;;2.00;99.90;;;;;;5093753;28;20055;-76
2023/12/08 12:35:15;;;;;;;26.95;15.43;;;2.10;99.90;;;;;;5110632;28;20100;-76